Time;durP1;ratioP1;P1;durP2;ratioP2;P2;SDS_P1;SDS_P2;PMS_P1;PMS_P2;Temp;Humidity;BMP_temperature;BMP_pressure;BME280_temperature;BME280_humidity;BME280_pressure;Samples;Min_cycle;Max_cycle;Signal;HPM_P1;HPM_P2
2021/02/22 00:04:19;;;;;;;0.60;0.60;;;;;;;6.12;71.00;96961.38;299395;199;63005;-52
2021/02/22 00:09:21;;;;;;;0.60;0.60;;;;;;;6.14;71.35;96958.44;299395;236;63009;-53
2021/02/22 00:14:22;;;;;;;0.50;0.50;;;;;;;6.17;70.81;96952.53;299395;240;63005;-52
2021/02/22 00:19:23;;;;;;;0.60;0.60;;;;;;;6.19;70.75;96950.38;299395;260;63009;-52
2021/02/22 00:24:24;;;;;;;0.60;0.60;;;;;;;6.20;70.46;96958.19;299395;230;63004;-53
2021/02/22 00:29:25;;;;;;;0.60;0.60;;;;;;;6.27;69.98;96968.72;299395;199;63009;-52
2021/02/22 00:34:26;;;;;;;0.60;0.60;;;;;;;6.37;69.61;96964.19;299395;218;63005;-52
2021/02/22 00:39:27;;;;;;;0.60;0.60;;;;;;;6.37;69.44;96980.34;299395;290;63009;-52
2021/02/22 00:44:28;;;;;;;0.60;0.60;;;;;;;6.39;69.33;96988.16;299395;249;63005;-53
2021/02/22 00:49:29;;;;;;;0.60;0.60;;;;;;;6.43;68.99;96989.28;299395;219;63021;-53
2021/02/22 00:54:30;;;;;;;0.60;0.60;;;;;;;6.51;68.45;96975.28;299395;367;63004;-52
2021/02/22 00:59:30;;;;;;;0.60;0.60;;;;;;;6.58;67.62;96967.78;299395;245;63009;-53
2021/02/22 01:04:31;;;;;;;0.60;0.60;;;;;;;6.59;67.77;96982.84;299395;271;63005;-53
2021/02/22 01:09:32;;;;;;;0.60;0.60;;;;;;;6.42;68.42;96992.22;299395;325;63008;-53
2021/02/22 01:14:33;;;;;;;0.60;0.60;;;;;;;6.32;68.96;97009.97;299395;288;63004;-53
2021/02/22 01:19:37;;;;;;;0.60;0.60;;;;;;;6.32;68.88;97003.75;299395;224;63009;-53
2021/02/22 01:24:38;;;;;;;0.60;0.60;;;;;;;6.36;68.46;97010.25;299377;199;125008;-52
2021/02/22 01:29:39;;;;;;;0.60;0.60;;;;;;;6.31;69.23;97018.31;299395;293;63004;-54
2021/02/22 01:34:40;;;;;;;0.60;0.60;;;;;;;6.22;69.63;97020.72;299395;240;63000;-53
2021/02/22 01:39:41;;;;;;;0.70;0.70;;;;;;;6.38;68.95;97019.69;299395;224;63018;-54
2021/02/22 01:44:42;;;;;;;0.55;0.55;;;;;;;6.42;68.90;97020.00;299395;246;63000;-56
2021/02/22 01:49:43;;;;;;;0.60;0.60;;;;;;;6.24;69.31;97023.13;299395;319;63005;-53
2021/02/22 01:54:44;;;;;;;0.60;0.60;;;;;;;6.10;69.42;97025.50;299394;362;63988;-53
2021/02/22 01:59:45;;;;;;;0.60;0.60;;;;;;;6.05;69.53;97018.19;299395;237;63007;-53
2021/02/22 02:04:46;;;;;;;0.60;0.60;;;;;;;6.09;69.56;97015.78;299395;203;63000;-52
2021/02/22 02:09:48;;;;;;;0.60;0.60;;;;;;;6.17;68.93;97020.69;299395;263;63004;-51
2021/02/22 02:14:49;;;;;;;0.60;0.60;;;;;;;6.16;68.92;97020.94;299395;327;63000;-52
2021/02/22 02:19:54;;;;;;;0.60;0.60;;;;;;;6.16;69.02;97026.34;299395;240;63005;-52
2021/02/22 02:24:55;;;;;;;0.60;0.60;;;;;;;6.00;69.75;97022.72;299395;203;63001;-53
2021/02/22 02:29:56;;;;;;;0.60;0.60;;;;;;;5.88;70.16;97027.50;299395;280;63004;-54
2021/02/22 02:34:57;;;;;;;0.60;0.60;;;;;;;5.75;70.54;97026.03;299395;209;63000;-52
2021/02/22 02:39:58;;;;;;;0.60;0.60;;;;;;;5.62;70.84;97021.09;299395;299;63005;-52
2021/02/22 02:44:58;;;;;;;0.60;0.60;;;;;;;5.56;71.26;97027.50;299395;353;63000;-52
2021/02/22 02:49:59;;;;;;;0.70;0.70;;;;;;;5.58;71.03;97025.38;299395;307;63005;-53
2021/02/22 02:55:06;;;;;;;0.60;0.60;;;;;;;5.49;71.42;97030.44;299395;245;63001;-51
2021/02/22 03:00:11;;;;;;;0.60;0.60;;;;;;;5.47;71.17;97012.91;299395;289;63004;-54
2021/02/22 03:05:16;;;;;;;0.60;0.60;;;;;;;5.34;71.62;97025.72;299395;236;63000;-52
2021/02/22 03:10:20;;;;;;;0.60;0.60;;;;;;;5.19;72.14;97038.25;299395;198;63005;-53
2021/02/22 03:15:23;;;;;;;0.60;0.60;;;;;;;5.15;72.35;97040.62;299395;341;63000;-53
2021/02/22 03:20:24;;;;;;;0.60;0.60;;;;;;;4.97;73.25;97035.59;299395;210;63005;-56
2021/02/22 03:25:25;;;;;;;0.60;0.60;;;;;;;4.81;73.55;97042.69;299395;301;63001;-52
2021/02/22 03:30:28;;;;;;;0.60;0.60;;;;;;;4.77;73.38;97040.75;299395;338;63004;-54
2021/02/22 03:35:29;;;;;;;0.60;0.60;;;;;;;4.74;74.20;97068.16;299395;287;63000;-53
2021/02/22 03:40:31;;;;;;;0.60;0.60;;;;;;;4.71;74.05;97066.78;299395;375;63005;-53
2021/02/22 03:45:33;;;;;;;0.60;0.60;;;;;;;4.65;74.12;97087.38;299396;208;63000;-54
2021/02/22 03:50:34;;;;;;;0.60;0.60;;;;;;;4.59;74.40;97093.75;299396;222;63005;-53
2021/02/22 03:55:37;;;;;;;0.60;0.60;;;;;;;4.51;74.68;97099.56;299396;259;63005;-53
2021/02/22 04:00:38;;;;;;;0.62;0.62;;;;;;;4.49;74.84;97104.41;299396;198;63026;-53
2021/02/22 04:05:39;;;;;;;0.60;0.60;;;;;;;4.46;75.07;97110.28;299396;236;63005;-52
2021/02/22 04:10:41;;;;;;;0.60;0.60;;;;;;;4.34;75.20;97117.63;299396;232;63009;-53
2021/02/22 04:15:42;;;;;;;0.60;0.60;;;;;;;4.40;75.33;97116.62;299396;301;63011;-53
2021/02/22 04:20:43;;;;;;;0.60;0.60;;;;;;;4.37;75.35;97117.94;299396;222;63009;-53
2021/02/22 04:25:43;;;;;;;0.60;0.60;;;;;;;4.39;75.48;97133.81;299396;206;63005;-53
2021/02/22 04:30:44;;;;;;;0.60;0.60;;;;;;;4.28;75.44;97145.47;299397;230;63008;-53
2021/02/22 04:35:45;;;;;;;0.60;0.60;;;;;;;4.21;75.54;97128.69;299397;204;63004;-53
2021/02/22 04:40:46;;;;;;;0.60;0.60;;;;;;;4.26;75.67;97136.84;299396;249;63009;-53
2021/02/22 04:45:47;;;;;;;0.60;0.60;;;;;;;4.26;75.32;97152.94;299396;226;63004;-54
2021/02/22 04:50:48;;;;;;;0.60;0.60;;;;;;;4.15;75.81;97156.56;299395;209;64009;-53
2021/02/22 04:55:49;;;;;;;0.60;0.60;;;;;;;4.15;76.04;97151.19;299396;253;63005;-53
2021/02/22 05:00:50;;;;;;;0.60;0.60;;;;;;;4.18;75.75;97158.72;299396;225;63008;-53
2021/02/22 05:05:50;;;;;;;0.60;0.60;;;;;;;4.06;75.89;97158.03;299396;211;63004;-52
2021/02/22 05:10:51;;;;;;;0.60;0.60;;;;;;;3.95;76.23;97165.91;299396;273;63009;-53
2021/02/22 05:15:54;;;;;;;0.60;0.60;;;;;;;3.95;75.90;97167.78;299396;357;63004;-53
2021/02/22 05:20:55;;;;;;;0.60;0.60;;;;;;;3.92;75.89;97182.50;299397;277;63009;-52
2021/02/22 05:25:56;;;;;;;0.60;0.60;;;;;;;3.90;76.05;97181.94;299397;226;63005;-53
2021/02/22 05:30:59;;;;;;;0.70;0.70;;;;;;;3.90;76.30;97186.47;299395;232;63009;-54
2021/02/22 05:36:00;;;;;;;0.65;0.65;;;;;;;3.98;75.16;97194.13;299395;209;63004;-53
2021/02/22 05:41:02;;;;;;;0.60;0.60;;;;;;;3.86;75.54;97196.87;299395;222;63009;-55
2021/02/22 05:46:03;;;;;;;0.60;0.60;;;;;;;3.75;76.21;97200.47;299395;264;63005;-53
2021/02/22 05:51:04;;;;;;;0.70;0.70;;;;;;;3.62;76.52;97196.22;299395;238;63009;-52
2021/02/22 05:56:06;;;;;;;0.60;0.60;;;;;;;3.56;76.50;97188.31;299394;218;63005;-54
2021/02/22 06:01:18;;;;;;;0.60;0.60;;;;;;;3.25;77.14;97201.16;299395;203;63009;-53
2021/02/22 06:06:21;;;;;;;0.95;0.95;;;;;;;3.15;77.78;97195.56;299395;218;63004;-54
2021/02/22 06:11:24;;;;;;;0.70;0.70;;;;;;;3.10;77.98;97203.53;299395;240;63009;-53
2021/02/22 06:16:54;;;;;;;0.70;0.70;;;;;;;3.11;78.38;97204.34;299395;215;63005;-53
2021/02/22 06:21:55;;;;;;;0.70;0.70;;;;;;;3.17;78.43;97198.84;299395;230;63008;-54
2021/02/22 06:27:04;;;;;;;0.60;0.60;;;;;;;3.14;78.04;97209.22;299395;285;63004;-53
2021/02/22 06:32:16;;;;;;;0.70;0.70;;;;;;;3.19;77.81;97212.81;299395;202;63009;-53
2021/02/22 06:37:22;;;;;;;0.70;0.70;;;;;;;3.25;78.14;97208.38;299395;230;63004;-53
2021/02/22 06:42:42;;;;;;;0.70;0.70;;;;;;;3.32;78.08;97212.56;299395;238;63009;-53
2021/02/22 06:47:44;;;;;;;0.70;0.70;;;;;;;3.37;77.75;97220.69;299395;222;63005;-54
2021/02/22 06:52:46;;;;;;;0.70;0.70;;;;;;;3.41;77.39;97225.59;299395;202;63008;-54
2021/02/22 06:57:47;;;;;;;0.60;0.60;;;;;;;3.57;76.72;97225.63;299395;213;63004;-54
2021/02/22 07:02:50;;;;;;;0.65;0.65;;;;;;;3.58;76.83;97243.34;299395;236;63009;-55
2021/02/22 07:08:15;;;;;;;0.60;0.60;;;;;;;3.58;76.81;97237.19;299395;224;63004;-55
2021/02/22 07:13:16;;;;;;;0.60;0.60;;;;;;;3.65;76.65;97243.22;299395;196;63009;-54
2021/02/22 07:18:19;;;;;;;0.60;0.60;;;;;;;3.69;76.38;97239.00;299395;221;63005;-53
2021/02/22 07:23:34;;;;;;;0.60;0.60;;;;;;;3.78;75.69;97248.31;299417;247;63009;-55
2021/02/22 07:28:41;;;;;;;0.60;0.60;;;;;;;3.85;75.51;97264.22;299395;240;63004;-54
2021/02/22 07:33:44;;;;;;;0.70;0.70;;;;;;;3.99;75.58;97269.06;299396;190;63009;-55
2021/02/22 07:38:49;;;;;;;0.70;0.70;;;;;;;4.08;75.18;97264.13;299395;285;63005;-56
2021/02/22 07:43:55;;;;;;;0.70;0.70;;;;;;;4.24;74.40;97276.75;299417;258;63019;-55
2021/02/22 07:49:21;;;;;;;0.60;0.60;;;;;;;4.25;74.22;97291.00;299395;246;63005;-55
2021/02/22 07:54:23;;;;;;;0.60;0.60;;;;;;;4.34;73.48;97305.66;299395;318;63009;-54
2021/02/22 07:59:47;;;;;;;0.60;0.60;;;;;;;4.52;72.61;97302.72;299395;213;63004;-53
2021/02/22 08:05:07;;;;;;;0.60;0.60;;;;;;;4.66;72.02;97304.03;299395;264;63009;-54
2021/02/22 08:10:09;;;;;;;0.60;0.60;;;;;;;4.81;71.57;97310.72;299395;227;63009;-55
2021/02/22 08:15:11;;;;;;;0.60;0.60;;;;;;;5.18;70.43;97317.19;299395;224;63005;-54
2021/02/22 08:20:25;;;;;;;0.60;0.60;;;;;;;5.54;69.50;97331.13;299395;328;63009;-54
2021/02/22 08:25:28;;;;;;;0.60;0.60;;;;;;;5.87;68.46;97339.06;299395;272;63005;-54
2021/02/22 08:30:34;;;;;;;0.60;0.60;;;;;;;6.22;66.17;97327.09;299395;204;63009;-54
2021/02/22 08:35:36;;;;;;;0.60;0.60;;;;;;;6.65;63.99;97320.72;299395;314;63004;-55
2021/02/22 08:40:38;;;;;;;0.60;0.60;;;;;;;7.06;63.43;97328.06;299395;215;63009;-54
2021/02/22 08:45:39;;;;;;;0.60;0.60;;;;;;;7.36;62.98;97327.41;299395;214;63005;-55
2021/02/22 08:50:52;;;;;;;0.60;0.60;;;;;;;7.56;62.94;97331.31;299395;226;63009;-55
2021/02/22 08:56:07;;;;;;;0.60;0.60;;;;;;;7.56;63.30;97334.84;299395;284;63005;-55
2021/02/22 09:01:08;;;;;;;0.60;0.60;;;;;;;7.84;62.01;97340.87;299439;216;63019;-55
2021/02/22 09:06:15;;;;;;;0.60;0.60;;;;;;;8.07;61.75;97343.94;299395;218;63013;-56
2021/02/22 09:11:17;;;;;;;0.60;0.60;;;;;;;8.44;57.42;97342.16;299395;223;63009;-55
2021/02/22 09:16:18;;;;;;;0.60;0.60;;;;;;;8.81;56.41;97331.09;299395;202;63005;-56
2021/02/22 09:21:24;;;;;;;0.60;0.60;;;;;;;9.08;56.19;97356.00;299395;213;63008;-55
2021/02/22 09:26:37;;;;;;;0.60;0.60;;;;;;;9.24;56.21;97345.97;299395;332;63004;-55
2021/02/22 09:31:41;;;;;;;0.50;0.50;;;;;;;9.36;55.74;97343.75;299395;305;63009;-55
2021/02/22 09:36:46;;;;;;;0.60;0.60;;;;;;;9.48;54.64;97329.94;299417;222;63005;-56
2021/02/22 09:42:15;;;;;;;0.50;0.50;;;;;;;9.60;55.63;97338.59;299395;300;63009;-55
2021/02/22 09:47:31;;;;;;;0.50;0.50;;;;;;;9.66;55.04;97353.75;299395;285;63005;-55
2021/02/22 09:52:38;;;;;;;0.60;0.60;;;;;;;9.74;55.21;97350.44;299395;233;63009;-57
2021/02/22 09:57:41;;;;;;;0.60;0.60;;;;;;;9.85;55.10;97341.19;299395;227;63004;-56
2021/02/22 10:02:48;;;;;;;0.60;0.60;;;;;;;9.93;54.59;97343.34;299395;229;63009;-57
2021/02/22 10:07:50;;;;;;;0.50;0.50;;;;;;;9.85;55.54;97352.03;299395;224;63005;-57
2021/02/22 10:12:52;;;;;;;0.50;0.50;;;;;;;9.81;56.48;97359.09;299395;222;63008;-57
2021/02/22 10:17:54;;;;;;;0.60;0.60;;;;;;;9.75;53.62;97341.22;299395;217;63004;-55
2021/02/22 10:22:56;;;;;;;0.50;0.50;;;;;;;9.97;51.47;97338.19;299395;216;63009;-55
2021/02/22 10:28:03;;;;;;;0.50;0.50;;;;;;;10.21;53.65;97343.78;299395;224;63012;-56
2021/02/22 10:33:06;;;;;;;0.50;0.50;;;;;;;10.40;54.52;97352.88;299395;306;63009;-55
2021/02/22 10:38:07;;;;;;;0.60;0.60;;;;;;;10.48;54.95;97360.44;299395;206;63005;-58
2021/02/22 10:43:08;;;;;;;0.50;0.50;;;;;;;10.60;55.63;97369.06;299395;221;63008;-56
2021/02/22 10:48:10;;;;;;;0.50;0.50;;;;;;;10.77;53.00;97367.84;299395;238;63004;-54
2021/02/22 10:53:11;;;;;;;0.50;0.50;;;;;;;10.89;54.06;97374.56;299394;198;64009;-56
2021/02/22 10:58:12;;;;;;;0.50;0.50;;;;;;;10.99;53.82;97360.09;299395;204;63004;-55
2021/02/22 11:03:13;;;;;;;0.50;0.50;;;;;;;11.03;52.94;97356.53;299395;294;63009;-55
2021/02/22 11:08:14;;;;;;;0.50;0.50;;;;;;;11.05;53.71;97358.97;299395;202;63005;-54
2021/02/22 11:13:15;;;;;;;0.50;0.50;;;;;;;11.01;53.37;97363.34;299395;243;63008;-54
2021/02/22 11:18:17;;;;;;;0.50;0.50;;;;;;;11.03;52.46;97366.59;299395;203;63004;-54
2021/02/22 11:23:23;;;;;;;0.50;0.50;;;;;;;11.06;53.83;97382.31;299395;242;63009;-54
2021/02/22 11:28:25;;;;;;;0.50;0.50;;;;;;;11.05;53.46;97376.06;299395;196;63004;-58
2021/02/22 11:33:30;;;;;;;0.50;0.50;;;;;;;11.02;54.59;97370.38;299395;238;63009;-54
2021/02/22 11:38:30;;;;;;;;;;;;;;;11.17;54.15;97378.41;299996;983;5987;-55
2021/02/22 11:43:34;;;;;;;0.50;0.50;;;;;;;11.32;53.84;97361.97;299400;186;63012;-55
2021/02/22 11:48:36;;;;;;;0.50;0.50;;;;;;;11.34;53.66;97351.63;299416;220;64028;-55
2021/02/22 11:53:38;;;;;;;0.50;0.50;;;;;;;11.54;52.75;97349.78;299395;232;63005;-56
2021/02/22 11:58:39;;;;;;;0.50;0.50;;;;;;;11.76;52.32;97352.84;299395;221;63009;-55
2021/02/22 12:03:41;;;;;;;0.50;0.50;;;;;;;11.78;52.49;97361.53;299395;226;63004;-54
2021/02/22 12:08:43;;;;;;;0.50;0.50;;;;;;;11.93;52.67;97353.19;299395;313;63005;-55
2021/02/22 12:13:44;;;;;;;0.50;0.50;;;;;;;12.16;51.18;97351.53;299395;220;63005;-55
2021/02/22 12:18:46;;;;;;;1.30;1.30;;;;;;;12.32;52.40;97355.69;299395;215;63017;-56
2021/02/22 12:23:48;;;;;;;0.50;0.50;;;;;;;12.61;49.83;97336.50;299395;235;63013;-56
2021/02/22 12:28:49;;;;;;;0.50;0.50;;;;;;;12.95;50.03;97330.00;299395;199;63009;-56
2021/02/22 12:33:49;;;;;;;0.50;0.50;;;;;;;13.29;49.71;97330.53;299395;391;63004;-57
2021/02/22 12:38:51;;;;;;;0.50;0.50;;;;;;;13.71;48.16;97320.50;299395;268;63009;-57
2021/02/22 12:43:52;;;;;;;0.50;0.50;;;;;;;13.91;47.66;97322.81;299395;267;63005;-54
2021/02/22 12:48:53;;;;;;;0.50;0.50;;;;;;;13.94;47.09;97319.47;299395;255;63009;-58
2021/02/22 12:53:55;;;;;;;0.50;0.50;;;;;;;13.85;47.29;97325.97;299394;204;63998;-56
2021/02/22 12:58:56;;;;;;;0.50;0.50;;;;;;;13.85;47.44;97318.59;299395;197;63009;-57
2021/02/22 13:03:59;;;;;;;1.55;1.55;;;;;;;13.76;46.39;97317.69;299395;378;63004;-58
2021/02/22 13:09:00;;;;;;;0.50;0.50;;;;;;;14.07;46.53;97317.84;299395;233;63009;-56
2021/02/22 13:14:01;;;;;;;0.50;0.50;;;;;;;14.25;45.84;97308.72;299395;266;63005;-55
2021/02/22 13:19:03;;;;;;;0.50;0.50;;;;;;;14.06;44.30;97310.78;299395;224;63009;-57
2021/02/22 13:24:05;;;;;;;0.50;0.50;;;;;;;13.99;45.05;97318.56;299395;265;63004;-57
2021/02/22 13:29:06;;;;;;;0.50;0.50;;;;;;;14.06;44.06;97317.06;299395;342;63009;-56
2021/02/22 13:34:08;;;;;;;0.40;0.40;;;;;;;14.06;43.74;97319.78;299395;226;63004;-57
2021/02/22 13:39:09;;;;;;;0.50;0.50;;;;;;;14.04;42.17;97330.19;299395;218;63009;-56
2021/02/22 13:44:11;;;;;;;0.50;0.50;;;;;;;14.03;39.99;97317.66;299395;341;63011;-58
2021/02/22 13:49:13;;;;;;;0.50;0.50;;;;;;;14.11;38.78;97324.31;299395;263;63008;-56
2021/02/22 13:54:14;;;;;;;0.50;0.50;;;;;;;14.30;38.62;97332.38;299395;266;63004;-57
2021/02/22 13:59:16;;;;;;;0.50;0.50;;;;;;;14.30;39.52;97337.84;299395;245;63005;-58
2021/02/22 14:04:17;;;;;;;0.50;0.50;;;;;;;14.33;38.75;97337.22;299395;215;63004;-56
2021/02/22 14:09:19;;;;;;;0.50;0.50;;;;;;;14.38;38.22;97334.37;299395;227;63009;-57
2021/02/22 14:14:21;;;;;;;0.50;0.50;;;;;;;14.61;36.91;97344.25;299395;301;63005;-60
2021/02/22 14:19:23;;;;;;;0.50;0.50;;;;;;;14.78;37.65;97348.28;299395;226;63008;-55
2021/02/22 14:24:24;;;;;;;0.50;0.50;;;;;;;14.93;36.31;97345.16;299395;415;63004;-66
2021/02/22 14:29:26;;;;;;;0.68;0.68;;;;;;;14.92;38.12;97354.47;299395;260;63009;-59
2021/02/22 14:34:28;;;;;;;0.50;0.50;;;;;;;15.06;36.75;97349.78;299395;228;63005;-67
2021/02/22 14:39:29;;;;;;;0.50;0.50;;;;;;;14.84;37.29;97357.97;299395;218;63009;-67
2021/02/22 14:44:30;;;;;;;0.40;0.40;;;;;;;14.64;37.69;97365.50;299395;250;63005;-68
2021/02/22 14:49:31;;;;;;;0.50;0.50;;;;;;;14.47;38.03;97370.81;299395;441;63009;-68
2021/02/22 14:54:32;;;;;;;0.40;0.40;;;;;;;14.48;37.86;97372.44;299395;203;63004;-57
2021/02/22 14:59:34;;;;;;;0.50;0.50;;;;;;;14.65;38.67;97383.50;299395;340;63009;-68
2021/02/22 15:04:36;;;;;;;0.50;0.50;;;;;;;14.77;39.86;97390.38;299395;249;63005;-58
2021/02/22 15:09:41;;;;;;;0.50;0.50;;;;;;;14.92;40.50;97398.19;299395;256;63009;-57
2021/02/22 15:14:42;;;;;;;0.50;0.50;;;;;;;14.89;41.28;97401.56;299417;248;63005;-65
2021/02/22 15:19:43;;;;;;;0.40;0.40;;;;;;;14.89;42.49;97409.78;299395;219;63009;-59
2021/02/22 15:24:44;;;;;;;0.40;0.40;;;;;;;14.68;42.86;97410.22;299395;210;63004;-58
2021/02/22 15:29:45;;;;;;;0.40;0.40;;;;;;;14.61;43.85;97431.66;299395;202;63009;-58
2021/02/22 15:34:48;;;;;;;0.40;0.40;;;;;;;14.49;44.39;97436.84;299395;246;63005;-59
2021/02/22 15:39:50;;;;;;;0.50;0.50;;;;;;;14.39;45.83;97434.28;299395;251;63009;-59
2021/02/22 15:44:55;;;;;;;0.40;0.40;;;;;;;14.23;45.57;97428.31;299395;214;63005;-58
2021/02/22 15:49:56;;;;;;;;;;;;;;;14.20;46.35;97444.50;299996;983;6005;-59
2021/02/22 15:54:57;;;;;;;0.50;0.50;;;;;;;14.07;46.36;97449.66;299400;216;63009;-57
2021/02/22 15:59:59;;;;;;;0.50;0.50;;;;;;;13.89;47.30;97458.69;299395;330;63005;-59
2021/02/22 16:05:00;;;;;;;0.50;0.50;;;;;;;13.73;47.77;97471.81;299395;258;63009;-59
2021/02/22 16:10:03;;;;;;;0.50;0.50;;;;;;;13.47;49.62;97478.00;299395;398;63004;-62
2021/02/22 16:15:09;;;;;;;0.50;0.50;;;;;;;13.19;49.93;97488.75;299395;274;63009;-65
2021/02/22 16:20:13;;;;;;;0.50;0.50;;;;;;;12.93;50.95;97491.00;299396;216;63005;-65
2021/02/22 16:25:14;;;;;;;;;;;;;;;12.71;51.13;97498.91;299997;983;6004;-60
2021/02/22 16:30:18;;;;;;;0.50;0.50;;;;;;;12.43;52.12;97508.78;299401;234;63009;-64
2021/02/22 16:35:20;;;;;;;0.50;0.50;;;;;;;12.15;53.06;97509.63;299418;262;63005;-65
2021/02/22 16:40:22;;;;;;;0.50;0.50;;;;;;;11.91;53.95;97518.56;299396;246;63022;-58
2021/02/22 16:45:26;;;;;;;0.50;0.50;;;;;;;11.76;54.97;97543.16;299396;212;63004;-66
2021/02/22 16:50:28;;;;;;;0.50;0.50;;;;;;;11.58;55.03;97546.53;299396;251;63009;-58
2021/02/22 16:55:30;;;;;;;0.50;0.50;;;;;;;11.46;55.71;97557.75;299396;216;63004;-66
2021/02/22 17:00:33;;;;;;;0.50;0.50;;;;;;;11.35;56.20;97570.59;299397;243;63009;-64
2021/02/22 17:05:43;;;;;;;0.50;0.50;;;;;;;11.22;56.62;97582.09;299397;213;63005;-55
2021/02/22 17:10:44;;;;;;;0.50;0.50;;;;;;;11.08;57.17;97594.66;299396;225;63008;-57
2021/02/22 17:15:52;;;;;;;0.50;0.50;;;;;;;10.95;57.94;97603.41;299396;238;63004;-58
2021/02/22 17:20:53;;;;;;;0.50;0.50;;;;;;;10.88;57.99;97592.03;299396;207;63009;-58
2021/02/22 17:25:54;;;;;;;0.50;0.50;;;;;;;10.81;58.60;97613.22;299396;217;63004;-57
2021/02/22 17:30:56;;;;;;;0.50;0.50;;;;;;;10.79;59.16;97612.69;299396;248;63009;-55
2021/02/22 17:36:02;;;;;;;0.50;0.50;;;;;;;10.69;59.44;97633.34;299396;234;63005;-57
2021/02/22 17:41:06;;;;;;;0.50;0.50;;;;;;;10.63;59.31;97639.88;299396;221;63009;-58
2021/02/22 17:46:11;;;;;;;0.50;0.50;;;;;;;10.51;59.61;97644.78;299418;219;63004;-56
2021/02/22 17:51:22;;;;;;;0.50;0.50;;;;;;;10.40;59.42;97659.44;299396;220;63009;-55
2021/02/22 17:56:28;;;;;;;0.50;0.50;;;;;;;10.32;59.64;97671.66;299397;227;63005;-56
2021/02/22 18:01:31;;;;;;;0.50;0.50;;;;;;;10.23;59.48;97675.19;299397;220;63009;-56
2021/02/22 18:06:32;;;;;;;0.50;0.50;;;;;;;10.17;59.92;97678.94;299395;216;63005;-57
2021/02/22 18:11:33;;;;;;;0.50;0.50;;;;;;;10.16;59.80;97683.56;299395;239;63009;-56
2021/02/22 18:16:35;;;;;;;0.50;0.50;;;;;;;10.11;59.96;97691.69;299395;212;63004;-57
2021/02/22 18:21:36;;;;;;;0.50;0.50;;;;;;;10.00;60.09;97712.56;299395;262;63009;-55
2021/02/22 18:26:38;;;;;;;0.50;0.50;;;;;;;9.91;60.26;97708.75;299395;268;63000;-55
2021/02/22 18:31:39;;;;;;;0.50;0.50;;;;;;;9.89;60.51;97720.94;299395;204;63009;-55
2021/02/22 18:36:44;;;;;;;0.50;0.50;;;;;;;9.90;60.47;97726.09;299395;211;63005;-55
2021/02/22 18:41:46;;;;;;;0.50;0.50;;;;;;;9.86;61.46;97733.12;299395;206;63009;-57
2021/02/22 18:46:47;;;;;;;0.60;0.60;;;;;;;9.70;62.28;97734.19;299395;203;63004;-56
2021/02/22 18:51:48;;;;;;;0.50;0.50;;;;;;;9.56;63.00;97750.13;299395;217;63009;-56
2021/02/22 18:56:53;;;;;;;0.50;0.50;;;;;;;9.41;63.49;97745.44;299395;297;63005;-59
2021/02/22 19:01:54;;;;;;;0.50;0.50;;;;;;;9.24;64.10;97763.78;299395;248;63008;-55
2021/02/22 19:06:55;;;;;;;0.50;0.50;;;;;;;9.14;64.32;97777.28;299395;236;63013;-57
2021/02/22 19:11:56;;;;;;;0.60;0.60;;;;;;;9.02;64.89;97795.59;299395;243;63009;-55
2021/02/22 19:17:00;;;;;;;0.60;0.60;;;;;;;8.92;65.29;97809.06;299395;281;63004;-57
2021/02/22 19:22:01;;;;;;;0.50;0.50;;;;;;;8.81;65.65;97827.13;299417;202;63009;-55
2021/02/22 19:27:06;;;;;;;0.50;0.50;;;;;;;8.73;66.01;97817.56;299395;202;63011;-55
2021/02/22 19:32:07;;;;;;;0.60;0.60;;;;;;;8.71;66.68;97825.12;299395;208;63008;-52
2021/02/22 19:37:09;;;;;;;0.60;0.60;;;;;;;8.66;67.50;97829.72;299395;202;63020;-55
2021/02/22 19:42:11;;;;;;;0.60;0.60;;;;;;;8.65;68.29;97836.19;299395;220;63009;-55
2021/02/22 19:47:18;;;;;;;0.60;0.60;;;;;;;8.63;68.29;97844.56;299395;274;63004;-55
2021/02/22 19:52:19;;;;;;;0.50;0.50;;;;;;;8.53;68.95;97849.88;299395;211;63019;-55
2021/02/22 19:57:20;;;;;;;0.50;0.50;;;;;;;8.44;69.13;97856.00;299395;222;63000;-56
2021/02/22 20:02:22;;;;;;;0.50;0.50;;;;;;;8.42;69.63;97855.44;299395;277;63009;-55
2021/02/22 20:07:23;;;;;;;0.50;0.50;;;;;;;8.54;70.51;97854.22;299395;210;63005;-56
2021/02/22 20:12:24;;;;;;;0.60;0.60;;;;;;;8.57;69.83;97867.22;299395;203;63009;-56
2021/02/22 20:17:25;;;;;;;0.50;0.50;;;;;;;8.60;70.18;97874.84;299395;212;63005;-57
2021/02/22 20:22:26;;;;;;;0.50;0.50;;;;;;;8.62;70.52;97880.81;299395;348;63009;-56
2021/02/22 20:27:27;;;;;;;0.60;0.60;;;;;;;8.60;70.57;97885.66;299395;196;63005;-56
2021/02/22 20:32:28;;;;;;;0.50;0.50;;;;;;;8.55;70.02;97896.44;299395;227;63009;-56
2021/02/22 20:37:29;;;;;;;0.60;0.60;;;;;;;8.40;70.37;97916.00;299395;204;63004;-54
2021/02/22 20:42:30;;;;;;;0.50;0.50;;;;;;;8.31;71.09;97922.09;299395;235;63009;-55
2021/02/22 20:47:32;;;;;;;0.50;0.50;;;;;;;8.22;71.14;97934.44;299395;240;63004;-56
2021/02/22 20:52:33;;;;;;;0.50;0.50;;;;;;;8.06;71.75;97936.94;299395;264;63009;-55
2021/02/22 20:57:35;;;;;;;0.60;0.60;;;;;;;7.95;71.98;97943.28;299395;209;63005;-55
2021/02/22 21:02:37;;;;;;;0.60;0.60;;;;;;;7.93;72.34;97936.50;299395;200;63009;-55
2021/02/22 21:07:38;;;;;;;0.60;0.60;;;;;;;8.14;72.80;97926.75;299395;231;63004;-55
2021/02/22 21:12:41;;;;;;;0.70;0.70;;;;;;;8.43;72.20;97939.03;299395;211;63020;-56
2021/02/22 21:17:42;;;;;;;0.50;0.50;;;;;;;8.51;71.58;97932.34;299395;215;63005;-55
2021/02/22 21:22:44;;;;;;;0.50;0.50;;;;;;;8.55;71.19;97928.87;299395;241;63009;-55
2021/02/22 21:27:48;;;;;;;0.50;0.50;;;;;;;8.67;70.70;97943.06;299395;239;63009;-56
2021/02/22 21:32:49;;;;;;;0.60;0.60;;;;;;;8.74;70.21;97943.69;299417;250;63009;-56
2021/02/22 21:37:50;;;;;;;0.60;0.60;;;;;;;8.73;70.23;97942.06;299395;196;63004;-55
2021/02/22 21:42:51;;;;;;;0.50;0.50;;;;;;;8.61;70.61;97944.09;299395;203;63009;-56
2021/02/22 21:47:52;;;;;;;0.60;0.60;;;;;;;8.44;70.88;97942.53;299395;236;63005;-56
2021/02/22 21:52:56;;;;;;;0.60;0.60;;;;;;;8.28;71.68;97976.69;299395;228;63004;-55
2021/02/22 21:57:57;;;;;;;0.60;0.60;;;;;;;8.21;72.04;98003.09;299417;204;63005;-57
2021/02/22 22:02:59;;;;;;;0.60;0.60;;;;;;;8.12;72.45;98001.88;299395;213;63009;-54
2021/02/22 22:08:00;;;;;;;0.60;0.60;;;;;;;8.06;72.46;98007.22;299395;228;63004;-56
2021/02/22 22:13:01;;;;;;;0.50;0.50;;;;;;;8.02;72.67;98011.47;299395;284;63009;-56
2021/02/22 22:18:02;;;;;;;1.10;1.10;;;;;;;7.99;72.83;98033.59;299395;228;63005;-56
2021/02/22 22:23:03;;;;;;;0.60;0.60;;;;;;;7.93;72.89;98028.38;299395;292;63019;-55
2021/02/22 22:28:05;;;;;;;0.50;0.50;;;;;;;7.94;72.82;98035.44;299395;216;63005;-56
2021/02/22 22:33:06;;;;;;;0.60;0.60;;;;;;;8.00;72.69;98046.03;299394;212;64009;-55
2021/02/22 22:38:07;;;;;;;0.50;0.50;;;;;;;7.96;72.71;98047.63;299395;204;63004;-57
2021/02/22 22:43:08;;;;;;;0.60;0.60;;;;;;;7.96;73.07;98047.63;299395;210;63009;-56
2021/02/22 22:48:11;;;;;;;0.60;0.60;;;;;;;7.89;73.20;98038.88;299395;210;63005;-56
2021/02/22 22:53:11;;;;;;;0.60;0.60;;;;;;;7.82;73.62;98048.19;299395;231;63008;-55
2021/02/22 22:58:12;;;;;;;0.60;0.60;;;;;;;7.82;73.66;98054.44;299395;358;63004;-55
2021/02/22 23:03:13;;;;;;;0.60;0.60;;;;;;;7.78;74.21;98064.09;299395;218;63009;-55
2021/02/22 23:08:14;;;;;;;0.60;0.60;;;;;;;7.83;74.02;98072.28;299395;292;63004;-55
2021/02/22 23:13:18;;;;;;;0.50;0.50;;;;;;;7.96;74.25;98061.16;299395;213;63019;-55
2021/02/22 23:18:29;;;;;;;0.60;0.60;;;;;;;8.01;73.35;98058.50;299417;229;63005;-56
2021/02/22 23:23:33;;;;;;;0.60;0.60;;;;;;;8.06;73.38;98061.28;299395;251;63008;-56
2021/02/22 23:28:39;;;;;;;0.60;0.60;;;;;;;8.08;73.26;98075.38;299395;228;63004;-56
2021/02/22 23:33:41;;;;;;;0.60;0.60;;;;;;;8.09;73.46;98078.88;299395;215;63009;-57
2021/02/22 23:38:42;;;;;;;0.60;0.60;;;;;;;8.18;72.86;98080.09;299395;239;63005;-56
2021/02/22 23:43:44;;;;;;;0.50;0.50;;;;;;;8.30;72.38;98083.53;299395;260;63009;-55
2021/02/22 23:48:45;;;;;;;0.52;0.52;;;;;;;8.40;71.85;98089.09;299395;207;63012;-55
2021/02/22 23:53:46;;;;;;;0.60;0.60;;;;;;;8.47;71.71;98088.91;299395;217;63008;-56
2021/02/22 23:58:48;;;;;;;0.60;0.60;;;;;;;8.47;71.70;98105.16;299395;214;63004;-55
